createdAt,value
2023-01-09T00:06:19.112Z,8.20
2023-01-09T00:09:23.086Z,12.23
2023-01-09T00:12:26.573Z,15.90
2023-01-09T00:15:29.375Z,17.58
2023-01-09T00:18:32.298Z,13.70
2023-01-09T00:21:36.016Z,20.33
2023-01-09T00:24:38.774Z,13.60
2023-01-09T00:27:41.698Z,21.40
2023-01-09T00:30:44.512Z,20.70
2023-01-09T00:34:01.036Z,21.92
2023-01-09T00:37:04.294Z,23.10
2023-01-09T00:40:07.824Z,22.50
2023-01-09T00:43:10.422Z,18.35
2023-01-09T00:46:13.927Z,21.95
2023-01-09T00:49:17.494Z,12.82
2023-01-09T00:52:20.623Z,17.47
2023-01-09T00:55:25.200Z,17.93
2023-01-09T00:58:28.090Z,22.42
2023-01-09T01:01:30.764Z,17.80
2023-01-09T01:04:52.551Z,18.92
2023-01-09T01:07:55.235Z,24.47
2023-01-09T01:10:58.293Z,11.53
2023-01-09T01:14:00.891Z,18.00
2023-01-09T01:17:04.546Z,24.23
2023-01-09T01:20:10.745Z,24.60
2023-01-09T01:23:13.736Z,23.87
2023-01-09T01:26:16.886Z,24.53
2023-01-09T01:29:19.649Z,20.98
2023-01-09T01:32:22.386Z,22.00
2023-01-09T01:35:26.837Z,21.80
2023-01-09T01:38:29.961Z,21.00
2023-01-09T01:41:33.123Z,21.03
2023-01-09T01:44:56.243Z,23.23
2023-01-09T01:48:03.776Z,21.73
2023-01-09T01:51:06.893Z,22.73
2023-01-09T01:54:15.000Z,23.37
2023-01-09T01:57:17.622Z,20.93
2023-01-09T02:00:22.883Z,20.50
2023-01-09T02:03:27.938Z,21.92
2023-01-09T02:06:33.311Z,19.40
2023-01-09T02:09:36.856Z,19.73
2023-01-09T02:12:39.742Z,21.63
2023-01-09T02:16:04.971Z,21.48
2023-01-09T02:19:07.858Z,24.95
2023-01-09T02:22:32.516Z,37.78
2023-01-09T02:25:56.340Z,30.73
2023-01-09T02:29:40.620Z,21.03
2023-01-09T02:33:14.071Z,24.40
2023-01-09T02:36:19.775Z,37.67
2023-01-09T02:39:41.727Z,32.38
2023-01-09T02:42:45.394Z,27.80
2023-01-09T02:45:48.262Z,22.90
2023-01-09T02:48:52.433Z,25.02
2023-01-09T02:52:24.324Z,24.63
2023-01-09T02:55:53.288Z,21.65
2023-01-09T02:59:20.816Z,23.87
2023-01-09T03:02:35.597Z,22.33
2023-01-09T03:05:46.229Z,21.23
2023-01-09T03:08:51.934Z,28.20
2023-01-09T03:12:02.952Z,24.42
2023-01-09T03:15:07.730Z,22.47
2023-01-09T03:18:12.125Z,25.03
2023-01-09T03:21:15.376Z,18.87
2023-01-09T03:24:18.207Z,19.80
2023-01-09T03:27:20.828Z,15.10
2023-01-09T03:30:24.451Z,17.23
2023-01-09T03:33:27.069Z,17.00
2023-01-09T03:36:29.893Z,17.58
2023-01-09T03:39:32.868Z,13.77
2023-01-09T03:42:35.745Z,14.52
2023-01-09T03:45:38.486Z,10.03
2023-01-09T03:48:41.857Z,10.40
2023-01-09T03:51:44.457Z,12.15
2023-01-09T03:54:47.481Z,11.40
2023-01-09T03:57:50.266Z,16.87
2023-01-09T04:01:01.375Z,17.37
2023-01-09T04:04:04.389Z,16.47
2023-01-09T04:07:06.955Z,12.65
2023-01-09T04:13:14.005Z,10.40
2023-01-09T04:16:16.911Z,11.00
2023-01-09T04:19:19.439Z,9.30
2023-01-09T04:22:22.296Z,8.02
2023-01-09T04:25:25.007Z,9.63
2023-01-09T04:28:29.523Z,9.63
2023-01-09T04:31:32.037Z,7.77
2023-01-09T04:34:34.865Z,8.20
2023-01-09T04:37:37.414Z,10.93
2023-01-09T04:40:40.235Z,9.02
2023-01-09T04:43:42.762Z,6.97
2023-01-09T04:46:45.562Z,6.97
2023-01-09T04:49:48.129Z,3.37
2023-01-09T04:52:50.998Z,6.43
2023-01-09T04:55:53.448Z,7.45
2023-01-09T04:58:58.113Z,11.23
2023-01-09T05:02:00.952Z,6.70
2023-01-09T05:05:24.100Z,8.13
2023-01-09T05:08:26.692Z,8.00
2023-01-09T05:11:29.730Z,6.37
2023-01-09T05:14:35.473Z,7.32
2023-01-09T05:20:42.505Z,7.60
2023-01-09T05:23:46.977Z,8.18
2023-01-09T05:26:49.575Z,9.35
2023-01-09T05:29:53.293Z,8.73
2023-01-09T05:32:55.964Z,7.37
2023-01-09T05:35:58.857Z,5.90
2023-01-09T05:39:02.776Z,6.00
2023-01-09T05:42:05.796Z,6.28
2023-01-09T05:45:09.161Z,8.13
2023-01-09T05:48:12.143Z,7.63
2023-01-09T05:51:14.855Z,7.50
2023-01-09T05:54:17.725Z,5.97
2023-01-09T05:57:20.425Z,7.43
2023-01-09T06:00:23.487Z,6.07
2023-01-09T06:03:26.320Z,6.40
2023-01-09T06:06:28.871Z,4.80
2023-01-09T06:09:31.749Z,5.55
2023-01-09T06:12:34.361Z,4.80
2023-01-09T06:15:37.217Z,5.15
2023-01-09T06:18:39.885Z,5.77
2023-01-09T06:21:42.814Z,4.53
2023-01-09T06:24:45.373Z,6.97
2023-01-09T06:27:49.213Z,5.78
2023-01-09T06:30:52.562Z,6.47
2023-01-09T06:33:55.591Z,6.50
2023-01-09T06:36:58.277Z,5.93
2023-01-09T06:40:01.159Z,4.93
2023-01-09T06:43:04.147Z,5.60
2023-01-09T06:46:07.190Z,5.82
2023-01-09T06:49:10.314Z,6.30
2023-01-09T06:52:13.866Z,5.10
2023-01-09T06:55:17.873Z,4.75
2023-01-09T06:58:20.943Z,5.97
2023-01-09T07:01:25.576Z,7.62
2023-01-09T07:04:28.676Z,4.43
2023-01-09T07:07:31.543Z,5.30
2023-01-09T07:10:34.484Z,6.20
2023-01-09T07:13:38.485Z,5.43
2023-01-09T07:16:41.659Z,7.18
2023-01-09T07:19:44.334Z,7.30
2023-01-09T07:22:47.953Z,7.47
2023-01-09T07:25:51.828Z,15.82
2023-01-09T07:28:55.288Z,7.70
2023-01-09T07:31:58.548Z,9.13
2023-01-09T07:35:04.996Z,5.43
2023-01-09T07:38:07.996Z,4.80
2023-01-09T07:41:11.215Z,9.45
2023-01-09T07:44:17.178Z,4.82
2023-01-09T07:47:20.268Z,3.37
2023-01-09T07:50:23.608Z,6.73
2023-01-09T07:53:27.572Z,4.10
2023-01-09T07:56:31.293Z,4.62
2023-01-09T07:59:35.062Z,5.57
2023-01-09T08:02:38.107Z,6.70
2023-01-09T08:05:41.023Z,5.03
2023-01-09T08:08:43.796Z,7.87
2023-01-09T08:11:46.760Z,4.70
2023-01-09T08:14:49.375Z,5.25
2023-01-09T08:17:52.308Z,5.28
2023-01-09T08:20:54.977Z,5.73
2023-01-09T08:23:57.978Z,6.47
2023-01-09T08:27:00.625Z,5.43
2023-01-09T08:30:03.934Z,5.45
2023-01-09T08:33:07.064Z,6.37
2023-01-09T08:36:10.195Z,5.93
2023-01-09T08:39:13.050Z,6.67
2023-01-09T08:42:35.181Z,8.15
2023-01-09T08:45:56.476Z,5.22
2023-01-09T08:48:59.661Z,6.65
2023-01-09T08:52:02.248Z,6.97
2023-01-09T08:55:05.576Z,6.17
2023-01-09T08:58:08.202Z,6.78
2023-01-09T09:01:11.786Z,7.93
2023-01-09T09:04:15.044Z,6.18
2023-01-09T09:07:18.620Z,5.67
2023-01-09T09:10:25.327Z,6.80
2023-01-09T09:13:28.453Z,5.68
2023-01-09T09:16:31.774Z,8.20
2023-01-09T09:19:34.801Z,9.00
2023-01-09T09:22:37.439Z,7.13
2023-01-09T09:25:40.468Z,6.67
2023-01-09T09:28:43.200Z,7.80
2023-01-09T09:31:46.190Z,7.37
2023-01-09T09:34:48.996Z,8.48
2023-01-09T09:37:59.605Z,7.97
2023-01-09T09:41:05.329Z,8.53
2023-01-09T09:44:48.316Z,7.35
2023-01-09T09:48:29.711Z,7.78
2023-01-09T09:51:44.725Z,57.40
2023-01-09T09:54:51.132Z,18.67
2023-01-09T09:57:55.213Z,61.50
2023-01-09T10:00:59.039Z,30.42
2023-01-09T10:04:05.432Z,10.10
2023-01-09T10:07:18.329Z,8.05
2023-01-09T10:10:38.037Z,6.23
2023-01-09T10:13:59.441Z,5.63
2023-01-09T10:17:08.433Z,6.68
2023-01-09T10:20:19.989Z,5.43
2023-01-09T10:23:52.143Z,5.78
2023-01-09T10:26:54.930Z,7.53
2023-01-09T10:30:25.097Z,5.43
2023-01-09T10:34:16.940Z,10.43
2023-01-09T10:37:34.137Z,5.15
2023-01-09T10:40:40.443Z,9.50
2023-01-09T10:43:53.215Z,4.93
2023-01-09T10:46:56.907Z,7.90
2023-01-09T10:50:02.364Z,6.40
2023-01-09T10:53:20.068Z,5.93
2023-01-09T10:56:26.235Z,7.47
2023-01-09T10:59:30.316Z,4.83
2023-01-09T11:02:35.197Z,7.70
2023-01-09T11:05:38.148Z,7.72
2023-01-09T11:08:43.598Z,9.20
2023-01-09T11:11:47.094Z,8.35
2023-01-09T11:14:50.702Z,12.47
2023-01-09T11:17:53.376Z,10.43
2023-01-09T11:20:56.357Z,6.68
2023-01-09T11:24:29.722Z,7.30
2023-01-09T11:27:33.129Z,3.55
2023-01-09T11:30:37.083Z,4.57
2023-01-09T11:33:48.020Z,3.23
2023-01-09T11:36:53.028Z,3.42
2023-01-09T11:39:58.159Z,4.35
2023-01-09T11:43:13.153Z,16.87
2023-01-09T11:46:35.100Z,7.37
2023-01-09T11:49:38.578Z,8.13
2023-01-09T11:52:43.114Z,6.28
2023-01-09T11:55:47.799Z,22.92
2023-01-09T11:58:51.451Z,13.25
2023-01-09T12:02:18.178Z,16.97
2023-01-09T12:05:24.520Z,14.47
2023-01-09T12:08:46.537Z,9.93
2023-01-09T12:11:59.090Z,6.85
2023-01-09T12:15:26.466Z,9.82
2023-01-09T12:18:49.568Z,7.37
2023-01-09T12:22:31.127Z,7.77
2023-01-09T12:26:15.977Z,7.72
2023-01-09T12:29:47.069Z,7.22
2023-01-09T12:32:58.946Z,13.20
2023-01-09T12:36:22.978Z,9.33
2023-01-09T12:39:28.711Z,6.07
2023-01-09T12:42:50.186Z,5.62
2023-01-09T12:46:16.029Z,3.05
2023-01-09T12:49:47.367Z,4.15
2023-01-09T12:53:07.265Z,2.43
2023-01-09T12:56:15.296Z,3.73
2023-01-09T12:59:18.551Z,4.40
2023-01-09T13:02:39.596Z,3.17
2023-01-09T13:05:43.396Z,3.25
2023-01-09T13:08:50.992Z,5.00
2023-01-09T13:12:08.917Z,2.07
2023-01-09T13:15:32.176Z,4.40
2023-01-09T13:18:48.273Z,1.98
2023-01-09T13:21:51.369Z,4.60
2023-01-09T13:24:58.135Z,1.80
2023-01-09T13:28:04.502Z,3.70
2023-01-09T13:31:26.244Z,2.12
2023-01-09T13:34:30.277Z,2.28
2023-01-09T13:37:35.815Z,2.72
2023-01-09T13:40:38.644Z,2.13
2023-01-09T13:43:56.336Z,2.47
2023-01-09T13:47:00.873Z,4.90
2023-01-09T13:50:10.026Z,2.45
2023-01-09T13:53:18.475Z,4.37
2023-01-09T13:56:23.904Z,4.67
2023-01-09T13:59:28.377Z,4.83
2023-01-09T14:02:34.167Z,3.62
2023-01-09T14:05:37.321Z,2.95
2023-01-09T14:08:42.081Z,3.53
2023-01-09T14:11:45.457Z,5.93
2023-01-09T14:14:49.400Z,2.00
2023-01-09T14:18:00.574Z,4.10
2023-01-09T14:24:41.867Z,3.15
2023-01-09T14:28:06.877Z,5.73
2023-01-09T14:31:10.604Z,3.67
2023-01-09T14:34:32.050Z,2.65
2023-01-09T14:37:37.930Z,2.12
2023-01-09T14:40:47.704Z,2.40
2023-01-09T14:44:03.820Z,4.70
2023-01-09T14:47:30.767Z,2.47
2023-01-09T14:50:38.376Z,9.43
2023-01-09T14:53:41.441Z,12.05
2023-01-09T14:56:48.234Z,7.35
2023-01-09T15:00:18.992Z,3.40
2023-01-09T15:03:22.349Z,6.50
2023-01-09T15:06:28.173Z,2.22
2023-01-09T15:09:41.379Z,4.05
2023-01-09T15:12:46.529Z,2.37
2023-01-09T15:15:50.206Z,4.43
2023-01-09T15:18:55.679Z,5.70
2023-01-09T15:22:06.975Z,4.45
2023-01-09T15:25:27.343Z,2.62
2023-01-09T15:28:35.062Z,2.55
2023-01-09T15:31:39.238Z,6.70
2023-01-09T15:34:44.604Z,9.07
2023-01-09T15:37:47.274Z,5.07
2023-01-09T15:40:58.469Z,5.07
2023-01-09T15:44:01.319Z,7.57
2023-01-09T15:47:07.110Z,2.53
2023-01-09T15:50:14.365Z,3.80
2023-01-09T15:53:20.127Z,3.60
2023-01-09T15:56:30.408Z,4.03
2023-01-09T15:59:33.434Z,3.67
2023-01-09T16:02:54.492Z,7.23
2023-01-09T16:06:08.379Z,5.20
2023-01-09T16:09:28.731Z,2.90
2023-01-09T16:15:35.205Z,5.45
2023-01-09T16:18:39.813Z,5.33
2023-01-09T16:21:42.389Z,22.27
2023-01-09T16:24:45.260Z,8.45
2023-01-09T16:31:28.972Z,5.82
2023-01-09T16:34:34.330Z,5.00
2023-01-09T16:37:37.536Z,5.40
2023-01-09T16:40:40.023Z,3.22
2023-01-09T16:43:42.949Z,5.28
2023-01-09T16:46:45.564Z,5.03
2023-01-09T16:49:48.467Z,4.87
2023-01-09T16:52:51.756Z,6.53
2023-01-09T16:55:54.634Z,4.10
2023-01-09T16:58:57.624Z,5.82
2023-01-09T17:02:00.560Z,4.50
2023-01-09T17:05:03.202Z,5.27
2023-01-09T17:08:29.113Z,7.00
2023-01-09T17:11:32.080Z,4.05
2023-01-09T17:14:35.115Z,4.72
2023-01-09T17:17:37.679Z,4.62
2023-01-09T17:20:41.777Z,5.60
2023-01-09T17:23:44.770Z,4.50
2023-01-09T17:27:09.999Z,12.60
2023-01-09T17:30:18.783Z,3.53
2023-01-09T17:33:22.051Z,4.62
2023-01-09T17:36:34.774Z,4.63
2023-01-09T17:39:37.763Z,4.10
2023-01-09T17:42:40.398Z,8.18
2023-01-09T17:45:43.461Z,6.65
2023-01-09T17:48:46.418Z,1.90
2023-01-09T17:51:49.327Z,6.97
2023-01-09T17:54:51.836Z,4.33
2023-01-09T17:57:54.772Z,4.57
2023-01-09T18:00:58.742Z,4.12
2023-01-09T18:04:03.426Z,4.68
2023-01-09T18:07:05.979Z,7.83
2023-01-09T18:10:14.561Z,15.37
2023-01-09T18:13:18.056Z,9.93
2023-01-09T18:16:24.845Z,11.82
2023-01-09T18:19:27.414Z,7.70
2023-01-09T18:22:30.631Z,14.50
2023-01-09T18:25:33.636Z,8.57
2023-01-09T18:28:37.638Z,6.12
2023-01-09T18:31:40.246Z,5.65
2023-01-09T18:34:43.146Z,8.70
2023-01-09T18:37:45.662Z,3.37
2023-01-09T18:40:49.868Z,3.07
2023-01-09T18:43:54.099Z,2.42
2023-01-09T18:46:57.282Z,3.00
2023-01-09T18:50:00.138Z,4.45
2023-01-09T18:53:03.277Z,4.53
2023-01-09T18:56:06.143Z,4.33
2023-01-09T18:59:09.644Z,4.72
2023-01-09T19:02:20.782Z,3.60
2023-01-09T19:05:25.476Z,4.70
2023-01-09T19:08:33.228Z,5.13
2023-01-09T19:11:36.184Z,4.87
2023-01-09T19:14:38.908Z,4.37
2023-01-09T19:17:42.234Z,3.12
2023-01-09T19:20:44.957Z,2.40
2023-01-09T19:23:49.761Z,5.50
2023-01-09T19:26:52.371Z,3.17
2023-01-09T19:29:55.462Z,4.97
2023-01-09T19:32:58.043Z,4.22
2023-01-09T19:36:01.004Z,3.20
2023-01-09T19:39:03.969Z,3.23
2023-01-09T19:42:07.011Z,2.13
2023-01-09T19:45:10.174Z,2.30
2023-01-09T19:48:13.140Z,4.65
2023-01-09T19:51:17.642Z,4.00
2023-01-09T19:54:21.166Z,3.87
2023-01-09T19:57:23.925Z,2.13
2023-01-09T20:00:27.579Z,3.17
2023-01-09T20:03:30.507Z,3.58
2023-01-09T20:06:33.951Z,4.93
2023-01-09T20:09:37.411Z,3.73
2023-01-09T20:12:40.111Z,5.83
2023-01-09T20:15:44.547Z,4.10
2023-01-09T20:18:47.860Z,4.55
2023-01-09T20:21:51.140Z,2.85
2023-01-09T20:24:53.844Z,3.37
2023-01-09T20:27:58.269Z,4.37
2023-01-09T20:31:01.718Z,4.25
2023-01-09T20:34:05.034Z,3.95
2023-01-09T20:37:08.752Z,3.12
2023-01-09T20:40:11.733Z,4.00
2023-01-09T20:43:14.446Z,3.20
2023-01-09T20:46:17.542Z,6.10
2023-01-09T20:49:20.870Z,5.22
2023-01-09T20:52:23.884Z,4.95
2023-01-09T20:55:26.633Z,5.60
2023-01-09T20:58:29.440Z,6.00
2023-01-09T21:04:35.777Z,4.68
2023-01-09T21:07:40.129Z,4.68
2023-01-09T21:10:43.107Z,4.33
2023-01-09T21:13:45.681Z,5.43
2023-01-09T21:16:54.592Z,7.18
2023-01-09T21:19:58.507Z,6.35
2023-01-09T21:23:01.370Z,7.75
2023-01-09T21:26:11.390Z,3.83
2023-01-09T21:29:14.585Z,5.33
2023-01-09T21:32:18.843Z,5.85
2023-01-09T21:35:21.703Z,8.73
2023-01-09T21:38:25.779Z,4.12
2023-01-09T21:41:47.513Z,6.53
2023-01-09T21:45:08.734Z,4.37
2023-01-09T21:48:11.603Z,4.70
2023-01-09T21:51:14.218Z,4.15
2023-01-09T21:54:17.276Z,11.23
2023-01-09T21:57:19.965Z,5.37
2023-01-09T22:00:23.857Z,4.27
2023-01-09T22:03:27.223Z,3.80
2023-01-09T22:06:30.208Z,6.15
2023-01-09T22:09:33.102Z,4.35
2023-01-09T22:12:35.585Z,6.90
2023-01-09T22:15:38.470Z,5.70
2023-01-09T22:18:41.094Z,7.40
2023-01-09T22:21:44.451Z,9.20
2023-01-09T22:24:47.020Z,6.18
2023-01-09T22:27:49.815Z,5.60
2023-01-09T22:30:52.406Z,3.83
2023-01-09T22:34:00.273Z,5.97
2023-01-09T22:37:03.000Z,4.97
2023-01-09T22:40:06.282Z,4.75
2023-01-09T22:43:08.901Z,5.23
2023-01-09T22:46:13.473Z,6.63
2023-01-09T22:49:16.094Z,6.15
2023-01-09T22:52:19.200Z,5.03
2023-01-09T22:55:21.780Z,4.22
2023-01-09T22:58:27.376Z,7.47
2023-01-09T23:01:29.971Z,6.50
2023-01-09T23:04:32.946Z,6.20
2023-01-09T23:07:37.428Z,6.45
2023-01-09T23:10:40.553Z,5.45
2023-01-09T23:13:43.324Z,3.37
2023-01-09T23:16:46.229Z,3.60
2023-01-09T23:19:48.972Z,4.80
2023-01-09T23:22:51.897Z,4.25
2023-01-09T23:25:59.513Z,7.70
2023-01-09T23:29:02.857Z,6.77
2023-01-09T23:32:05.862Z,4.63
2023-01-09T23:35:09.181Z,5.47
2023-01-09T23:38:11.827Z,4.12
2023-01-09T23:41:15.407Z,6.30
2023-01-09T23:44:17.887Z,4.83
2023-01-09T23:47:20.756Z,6.30
2023-01-09T23:50:23.363Z,10.15
2023-01-09T23:53:26.713Z,8.40
2023-01-09T23:56:31.237Z,5.93
2023-01-09T23:59:34.190Z,6.77
